Thunder radar more information blitzortung!


Radar de pluja more information rain snow radar


Visita la nostra xarxa de llocs de meteo:

Template documentation
and downloads

And another site



No particular awareness of the weather is required.    There are no Weather-warnings

Pagina Historial Weather Underground text

Diari Resum Juny 15, 2016 Unitats:  Mètric    Imperial   Tant
« Previous Dia
SegĂźent Dia »
Diari Setmana Mensual Anual Personalitzada
  Maxima: Minima: Media:
Temperatura: 24.9 °C 15.2 °C 21.5 °C
Punt de rosada: 15.6 °C 9.1 °C 13.7 °C
Humitat: 83 % 53 % 62 %
Wind Speed: 31.5 km/h 0.0 km/h 8.2 km/h
RĂ fegues de vent: 31.5 km/h - -
Vent:- - East
Pression baro: 1003.9 hPa 997.9 hPa -
Precipitacions: 0.0 mm    
Historical Graphs
 
 
Dades de taula per Juny 15, 2016
Temps Temperatura Punt de rosada Pression baro Vent Wind Speed RĂ fegues de vent Humitat Rainfall Rate (Hourly)
00:02 20.7 °C 11.6 °C 1003.9 hPa ESE 13.0 km/h 13.0 km/h 56 % 0.0 mm
00:05 18.1 °C 13.4 °C 1001.9 hPa Calm   3.2 km/h 74 % 0.0 mm
00:15 18.0 °C 13.3 °C 1001.9 hPa Calm   3.2 km/h 74 % 0.0 mm
00:25 17.9 °C 13.2 °C 1001.9 hPa Calm   3.2 km/h 74 % 0.0 mm
00:35 17.8 °C 13.3 °C 1001.9 hPa Calm   3.2 km/h 75 % 0.0 mm
00:55 17.7 °C 13.2 °C 1001.9 hPa Calm   3.2 km/h 75 % 0.0 mm
01:05 17.5 °C 13.0 °C 1001.9 hPa Calm   3.2 km/h 75 % 0.0 mm
01:15 17.4 °C 12.9 °C 1001.9 hPa Calm   3.2 km/h 75 % 0.0 mm
01:25 17.3 °C 13.0 °C 1001.9 hPa Calm   3.2 km/h 76 % 0.0 mm
01:35 17.2 °C 12.9 °C 1001.9 hPa Calm   3.2 km/h 76 % 0.0 mm
01:45 17.2 °C 12.9 °C 1001.9 hPa Calm   3.2 km/h 76 % 0.0 mm
01:55 17.4 °C 12.9 °C 1001.9 hPa Calm   3.2 km/h 75 % 0.0 mm
02:05 17.6 °C 13.1 °C 1001.9 hPa Calm   3.2 km/h 75 % 0.0 mm
02:15 17.8 °C 13.1 °C 1001.9 hPa Calm   3.2 km/h 74 % 0.0 mm
02:25 18.2 °C 13.3 °C 1001.9 hPa Calm   3.2 km/h 73 % 0.0 mm
02:35 18.4 °C 13.3 °C 1001.9 hPa Calm   3.2 km/h 72 % 0.0 mm
02:45 18.6 °C 13.4 °C 1001.9 hPa Calm   3.2 km/h 72 % 0.0 mm
02:55 18.9 °C 13.5 °C 1001.9 hPa Calm   3.2 km/h 71 % 0.0 mm
03:15 19.4 °C 13.6 °C 1002.9 hPa Calm   3.2 km/h 69 % 0.0 mm
03:25 19.8 °C 13.9 °C 1002.9 hPa Calm   3.2 km/h 69 % 0.0 mm
03:35 19.8 °C 13.9 °C 1002.9 hPa ESE 4.8 km/h 11.3 km/h 69 % 0.0 mm
03:45 20.0 °C 13.9 °C 1002.9 hPa SE 4.8 km/h 4.8 km/h 68 % 0.0 mm
03:55 20.4 °C 14.1 °C 1002.9 hPa ESE 1.6 km/h 4.8 km/h 67 % 0.0 mm
04:05 20.7 °C 14.3 °C 1001.9 hPa ENE 8.0 km/h 8.0 km/h 67 % 0.0 mm
04:15 21.0 °C 14.4 °C 1001.9 hPa ENE 8.0 km/h 9.7 km/h 66 % 0.0 mm
04:25 21.2 °C 14.6 °C 1001.9 hPa ENE 4.8 km/h 9.7 km/h 66 % 0.0 mm
04:35 21.4 °C 14.8 °C 1001.9 hPa NE 4.8 km/h 8.0 km/h 66 % 0.0 mm
04:45 21.8 °C 14.9 °C 1001.9 hPa ENE 9.7 km/h 9.7 km/h 65 % 0.0 mm
04:55 22.1 °C 14.9 °C 1001.9 hPa East 9.7 km/h 11.3 km/h 64 % 0.0 mm
10:06 22.2 °C 15.1 °C 1001.9 hPa ESE 9.3 km/h 9.3 km/h 64 % 0.0 mm
10:11 22.4 °C 15.3 °C 1001.9 hPa East 7.6 km/h 8.7 km/h 64 % 0.0 mm
10:16 22.3 °C 14.9 °C 1001.9 hPa ESE 9.3 km/h 9.3 km/h 63 % 0.0 mm
10:21 22.6 °C 14.9 °C 1001.9 hPa ESE 7.4 km/h 7.4 km/h 62 % 0.0 mm
10:26 23.1 °C 15.4 °C 1001.9 hPa ENE 5.6 km/h 5.6 km/h 62 % 0.0 mm
10:31 23.5 °C 15.6 °C 1001.9 hPa East 7.4 km/h 7.4 km/h 61 % 0.0 mm
10:36 23.7 °C 15.5 °C 1001.9 hPa NNE 9.5 km/h 9.5 km/h 60 % 0.0 mm
10:41 23.6 °C 15.4 °C 1001.9 hPa East 8.7 km/h 8.7 km/h 60 % 0.0 mm
10:51 24.3 °C 15.5 °C 1001.9 hPa ESE 4.2 km/h 4.2 km/h 58 % 0.0 mm
10:56 24.6 °C 15.2 °C 1001.9 hPa ESE 16.1 km/h 16.1 km/h 56 % 0.0 mm
11:01 24.4 °C 14.8 °C 1001.9 hPa SW 9.3 km/h 9.3 km/h 55 % 0.0 mm
11:06 24.5 °C 14.6 °C 1001.9 hPa ENE 9.3 km/h 9.3 km/h 54 % 0.0 mm
11:11 24.7 °C 14.5 °C 1001.9 hPa East 9.0 km/h 9.0 km/h 53 % 0.0 mm
11:16 24.5 °C 14.3 °C 1000.9 hPa ESE 12.6 km/h 12.6 km/h 53 % 0.0 mm
11:21 24.2 °C 14.3 °C 1000.9 hPa East 9.0 km/h 9.0 km/h 54 % 0.0 mm
11:26 24.3 °C 14.4 °C 1000.9 hPa ESE 12.6 km/h 12.6 km/h 54 % 0.0 mm
11:31 24.0 °C 14.1 °C 1001.9 hPa East 7.4 km/h 7.4 km/h 54 % 0.0 mm
11:36 23.8 °C 14.5 °C 1001.9 hPa NNE 9.3 km/h 9.3 km/h 56 % 0.0 mm
11:41 23.9 °C 14.6 °C 1001.9 hPa ESE 14.8 km/h 14.8 km/h 56 % 0.0 mm
11:46 24.0 °C 14.4 °C 1001.9 hPa East 31.5 km/h 31.5 km/h 55 % 0.0 mm
11:51 23.4 °C 14.4 °C 1001.9 hPa ESE 16.7 km/h 16.7 km/h 57 % 0.0 mm
11:56 23.5 °C 14.5 °C 1001.9 hPa East 11.1 km/h 11.1 km/h 57 % 0.0 mm
12:01 23.9 °C 14.9 °C 1001.9 hPa East 9.3 km/h 9.3 km/h 57 % 0.0 mm
12:06 24.3 °C 14.9 °C 1001.9 hPa SSE 9.3 km/h 9.3 km/h 56 % 0.0 mm
12:11 24.5 °C 14.9 °C 1001.9 hPa SE 12.6 km/h 12.6 km/h 55 % 0.0 mm
12:16 24.6 °C 14.9 °C 1000.9 hPa South 5.6 km/h 6.1 km/h 55 % 0.0 mm
12:21 24.7 °C 14.8 °C 1000.9 hPa SSW 13.0 km/h 13.0 km/h 54 % 0.0 mm
12:26 24.9 °C 14.9 °C 1000.9 hPa SW 14.8 km/h 14.8 km/h 54 % 0.0 mm
12:31 24.7 °C 14.8 °C 1000.9 hPa East 9.3 km/h 9.3 km/h 54 % 0.0 mm
12:36 24.5 °C 14.6 °C 1000.9 hPa ESE 16.7 km/h 16.7 km/h 54 % 0.0 mm
12:41 24.3 °C 14.7 °C 1000.9 hPa ESE 13.7 km/h 13.7 km/h 55 % 0.0 mm
12:46 24.0 °C 14.4 °C 1000.9 hPa ESE 16.7 km/h 16.7 km/h 55 % 0.0 mm
12:51 23.7 °C 14.7 °C 1000.9 hPa ESE 16.7 km/h 16.7 km/h 57 % 0.0 mm
12:56 23.6 °C 14.6 °C 1000.9 hPa East 14.8 km/h 14.8 km/h 57 % 0.0 mm
13:01 23.6 °C 14.6 °C 1000.9 hPa ESE 15.1 km/h 15.1 km/h 57 % 0.0 mm
13:06 23.7 °C 14.9 °C 1000.9 hPa East 13.0 km/h 13.0 km/h 58 % 0.0 mm
13:11 23.6 °C 14.6 °C 1000.9 hPa South 16.7 km/h 16.7 km/h 57 % 0.0 mm
13:16 23.7 °C 14.7 °C 999.9 hPa ESE 14.8 km/h 14.8 km/h 57 % 0.0 mm
13:21 23.7 °C 14.9 °C 999.9 hPa ESE 14.8 km/h 14.8 km/h 58 % 0.0 mm
13:26 23.7 °C 14.7 °C 999.9 hPa East 16.7 km/h 16.7 km/h 57 % 0.0 mm
13:31 24.0 °C 14.9 °C 999.9 hPa NE 16.7 km/h 16.7 km/h 57 % 0.0 mm
13:36 23.9 °C 15.1 °C 999.9 hPa ESE 9.3 km/h 9.3 km/h 58 % 0.0 mm
13:41 23.7 °C 14.7 °C 999.9 hPa ENE 16.7 km/h 16.7 km/h 57 % 0.0 mm
13:46 23.4 °C 14.9 °C 999.9 hPa ESE 18.5 km/h 18.5 km/h 59 % 0.0 mm
13:51 23.4 °C 14.9 °C 999.9 hPa ESE 16.7 km/h 16.7 km/h 59 % 0.0 mm
13:56 23.2 °C 15.0 °C 999.9 hPa ESE 22.2 km/h 22.2 km/h 60 % 0.0 mm
14:01 23.2 °C 15.0 °C 999.9 hPa South 20.4 km/h 20.4 km/h 60 % 0.0 mm
14:06 23.3 °C 15.1 °C 999.9 hPa East 7.4 km/h 7.4 km/h 60 % 0.0 mm
14:11 23.5 °C 15.0 °C 999.9 hPa ESE 11.1 km/h 11.1 km/h 59 % 0.0 mm
14:16 23.4 °C 14.9 °C 999.9 hPa NNE 9.3 km/h 9.3 km/h 59 % 0.0 mm
14:21 24.0 °C 15.2 °C 999.9 hPa West 7.4 km/h 7.4 km/h 58 % 0.0 mm
14:26 23.9 °C 15.4 °C 999.9 hPa NE 9.3 km/h 9.3 km/h 59 % 0.0 mm
14:31 24.1 °C 15.3 °C 999.9 hPa WNW 7.4 km/h 7.4 km/h 58 % 0.0 mm
14:36 23.9 °C 15.4 °C 999.9 hPa ENE 13.0 km/h 13.0 km/h 59 % 0.0 mm
14:41 23.9 °C 15.1 °C 999.9 hPa East 9.3 km/h 9.3 km/h 58 % 0.0 mm
14:46 24.0 °C 14.9 °C 999.9 hPa WSW 5.6 km/h 5.6 km/h 57 % 0.0 mm
14:51 24.3 °C 15.2 °C 999.9 hPa SSW 3.7 km/h 3.7 km/h 57 % 0.0 mm
15:01 24.1 °C 15.3 °C 999.9 hPa ENE 7.4 km/h 7.4 km/h 58 % 0.0 mm
15:06 23.7 °C 15.2 °C 999.9 hPa ENE 9.3 km/h 9.3 km/h 59 % 0.0 mm
15:11 23.8 °C 15.3 °C 999.9 hPa NNE 7.6 km/h 7.6 km/h 59 % 0.0 mm
15:16 23.8 °C 15.3 °C 999.9 hPa NE 3.7 km/h 3.7 km/h 59 % 0.0 mm
15:21 23.9 °C 15.1 °C 999.9 hPa NNE 9.5 km/h 9.5 km/h 58 % 0.0 mm
15:26 24.0 °C 14.9 °C 999.9 hPa NE 11.1 km/h 11.4 km/h 57 % 0.0 mm
15:31 24.2 °C 15.2 °C 998.9 hPa ENE 11.1 km/h 11.1 km/h 57 % 0.0 mm
15:36 24.0 °C 14.9 °C 998.9 hPa ENE 11.1 km/h 11.1 km/h 57 % 0.0 mm
15:41 24.0 °C 14.9 °C 998.9 hPa NE 13.0 km/h 13.0 km/h 57 % 0.0 mm
15:46 23.9 °C 14.9 °C 999.9 hPa East 13.0 km/h 13.0 km/h 57 % 0.0 mm
15:51 24.4 °C 15.1 °C 999.9 hPa ESE 13.0 km/h 13.0 km/h 56 % 0.0 mm
15:56 24.6 °C 15.2 °C 999.9 hPa NE 15.8 km/h 15.8 km/h 56 % 0.0 mm
16:01 24.8 °C 15.2 °C 999.9 hPa ENE 16.7 km/h 16.7 km/h 55 % 0.0 mm
16:06 24.6 °C 14.9 °C 999.9 hPa NNE 11.1 km/h 11.1 km/h 55 % 0.0 mm
16:11 24.8 °C 15.2 °C 999.9 hPa East 16.7 km/h 16.7 km/h 55 % 0.0 mm
16:16 24.7 °C 15.1 °C 998.9 hPa East 13.0 km/h 13.0 km/h 55 % 0.0 mm
16:21 24.6 °C 14.7 °C 998.9 hPa ESE 14.8 km/h 14.8 km/h 54 % 0.0 mm
16:26 24.7 °C 14.8 °C 998.9 hPa SE 10.0 km/h 10.0 km/h 54 % 0.0 mm
16:36 24.7 °C 14.8 °C 998.9 hPa ESE 14.8 km/h 14.8 km/h 54 % 0.0 mm
16:41 24.4 °C 14.5 °C 998.9 hPa East 16.7 km/h 16.7 km/h 54 % 0.0 mm
16:46 23.8 °C 14.2 °C 998.9 hPa ENE 20.4 km/h 20.4 km/h 55 % 0.0 mm
16:51 23.5 °C 14.2 °C 998.9 hPa ESE 16.7 km/h 16.7 km/h 56 % 0.0 mm
16:56 23.4 °C 14.1 °C 998.9 hPa ESE 15.6 km/h 15.6 km/h 56 % 0.0 mm
17:01 23.4 °C 14.1 °C 998.9 hPa ESE 20.4 km/h 20.4 km/h 56 % 0.0 mm
17:06 23.5 °C 14.2 °C 998.9 hPa ESE 16.7 km/h 16.7 km/h 56 % 0.0 mm
17:11 23.5 °C 14.5 °C 998.9 hPa SSW 11.1 km/h 11.1 km/h 57 % 0.0 mm
17:16 23.7 °C 14.4 °C 998.9 hPa South 9.3 km/h 9.3 km/h 56 % 0.0 mm
17:21 23.8 °C 14.5 °C 998.9 hPa SSE 9.3 km/h 9.5 km/h 56 % 0.0 mm
17:26 23.8 °C 14.5 °C 998.9 hPa ESE 11.1 km/h 11.1 km/h 56 % 0.0 mm
17:31 24.0 °C 14.4 °C 998.9 hPa East 9.3 km/h 9.3 km/h 55 % 0.0 mm
17:36 24.2 °C 14.6 °C 998.9 hPa ESE 5.6 km/h 5.6 km/h 55 % 0.0 mm
17:41 24.5 °C 14.9 °C 998.9 hPa NNW 7.4 km/h 7.4 km/h 55 % 0.0 mm
17:46 24.6 °C 14.7 °C 998.9 hPa SSW 7.6 km/h 7.6 km/h 54 % 0.0 mm
17:51 24.5 °C 14.6 °C 998.9 hPa South 11.1 km/h 11.1 km/h 54 % 0.0 mm
17:56 24.3 °C 14.4 °C 998.9 hPa South 9.5 km/h 9.5 km/h 54 % 0.0 mm
18:01 24.0 °C 14.1 °C 997.9 hPa NNE 14.8 km/h 14.8 km/h 54 % 0.0 mm
18:06 23.8 °C 14.5 °C 997.9 hPa ENE 13.0 km/h 13.0 km/h 56 % 0.0 mm
18:11 23.6 °C 14.3 °C 997.9 hPa SSE 11.1 km/h 11.1 km/h 56 % 0.0 mm
18:16 23.6 °C 14.3 °C 997.9 hPa ENE 11.1 km/h 11.1 km/h 56 % 0.0 mm
18:21 23.7 °C 14.4 °C 997.9 hPa SSE 11.1 km/h 11.1 km/h 56 % 0.0 mm
18:26 23.5 °C 14.2 °C 997.9 hPa SE 5.6 km/h 7.9 km/h 56 % 0.0 mm
18:31 23.5 °C 14.5 °C 997.9 hPa ESE 9.3 km/h 9.3 km/h 57 % 0.0 mm
18:36 23.3 °C 14.3 °C 997.9 hPa ESE 9.3 km/h 9.3 km/h 57 % 0.0 mm
18:41 23.2 °C 14.2 °C 997.9 hPa East 6.1 km/h 7.6 km/h 57 % 0.0 mm
18:46 23.1 °C 14.4 °C 997.9 hPa East 14.8 km/h 14.8 km/h 58 % 0.0 mm
18:51 22.9 °C 14.4 °C 997.9 hPa ESE 9.3 km/h 9.3 km/h 59 % 0.0 mm
18:56 22.9 °C 14.4 °C 997.9 hPa ESE 7.4 km/h 7.4 km/h 59 % 0.0 mm
19:01 22.8 °C 14.4 °C 997.9 hPa ESE 9.3 km/h 9.3 km/h 59 % 0.0 mm
19:06 22.8 °C 14.4 °C 997.9 hPa ESE 7.4 km/h 7.4 km/h 59 % 0.0 mm
19:11 22.7 °C 14.3 °C 997.9 hPa East 9.3 km/h 9.3 km/h 59 % 0.0 mm
19:15 18.4 °C 11.9 °C 999.9 hPa East 4.8 km/h 9.7 km/h 66 % 0.0 mm
19:16 22.7 °C 14.3 °C 997.9 hPa ENE 2.6 km/h 4.2 km/h 59 % 0.0 mm
19:21 22.7 °C 14.3 °C 997.9 hPa NE 3.7 km/h 3.7 km/h 59 % 0.0 mm
19:25 18.1 °C 11.9 °C 999.9 hPa ESE 4.8 km/h 9.7 km/h 67 % 0.0 mm
19:26 22.7 °C 14.3 °C 997.9 hPa NNE 3.7 km/h 3.7 km/h 59 % 0.0 mm
19:31 22.7 °C 14.3 °C 998.9 hPa East 3.7 km/h 3.9 km/h 59 % 0.0 mm
19:35 18.1 °C 12.3 °C 1001.9 hPa ESE 4.8 km/h 9.7 km/h 69 % 0.0 mm
19:36 22.7 °C 14.6 °C 998.9 hPa ENE 7.4 km/h 7.4 km/h 60 % 0.0 mm
19:41 22.7 °C 14.6 °C 998.9 hPa NNE 3.9 km/h 3.9 km/h 60 % 0.0 mm
19:45 16.6 °C 12.7 °C 1001.9 hPa ESE 4.8 km/h 9.7 km/h 78 % 0.0 mm
19:51 22.6 °C 14.4 °C 997.9 hPa ENE 7.6 km/h 7.6 km/h 60 % 0.0 mm
19:55 16.4 °C 12.3 °C 1001.9 hPa ESE 4.8 km/h 9.7 km/h 77 % 0.0 mm
19:56 22.4 °C 14.3 °C 997.9 hPa East 9.3 km/h 9.3 km/h 60 % 0.0 mm
20:01 22.3 °C 14.4 °C 997.9 hPa East 9.3 km/h 9.3 km/h 61 % 0.0 mm
20:05 16.4 °C 12.9 °C 1000.9 hPa ESE 4.8 km/h 9.7 km/h 80 % 0.0 mm
20:06 22.3 °C 14.2 °C 997.9 hPa East 4.2 km/h 5.3 km/h 60 % 0.0 mm
20:11 22.2 °C 14.3 °C 997.9 hPa East 7.9 km/h 7.9 km/h 61 % 0.0 mm
20:15 16.2 °C 12.7 °C 1000.9 hPa ESE 4.8 km/h 9.7 km/h 80 % 0.0 mm
20:16 22.1 °C 14.2 °C 997.9 hPa East 7.9 km/h 7.9 km/h 61 % 0.0 mm
20:21 22.0 °C 14.1 °C 997.9 hPa East 7.9 km/h 7.9 km/h 61 % 0.0 mm
20:25 16.2 °C 12.7 °C 1000.9 hPa ESE 4.8 km/h 9.7 km/h 80 % 0.0 mm
20:26 22.0 °C 14.1 °C 997.9 hPa East 7.9 km/h 7.9 km/h 61 % 0.0 mm
20:31 21.9 °C 14.3 °C 997.9 hPa East 7.9 km/h 7.9 km/h 62 % 0.0 mm
20:35 16.2 °C 13.1 °C 1000.9 hPa ESE 4.8 km/h 9.7 km/h 82 % 0.0 mm
20:36 21.8 °C 14.4 °C 997.9 hPa East 7.9 km/h 7.9 km/h 63 % 0.0 mm
20:41 21.7 °C 13.8 °C 997.9 hPa East 7.9 km/h 7.9 km/h 61 % 0.0 mm
20:45 16.2 °C 13.3 °C 1001.9 hPa ESE 4.8 km/h 9.7 km/h 83 % 0.0 mm
20:46 21.6 °C 13.5 °C 998.9 hPa East 7.9 km/h 7.9 km/h 60 % 0.0 mm
20:51 21.5 °C 13.7 °C 998.9 hPa East 7.9 km/h 7.9 km/h 61 % 0.0 mm
20:55 16.1 °C 13.2 °C 1001.9 hPa ESE 4.8 km/h 9.7 km/h 83 % 0.0 mm
20:56 21.4 °C 13.6 °C 998.9 hPa East 7.9 km/h 7.9 km/h 61 % 0.0 mm
21:01 21.3 °C 12.7 °C 998.9 hPa East 7.9 km/h 7.9 km/h 58 % 0.0 mm
21:05 15.9 °C 12.8 °C 1000.9 hPa ESE 4.8 km/h 9.7 km/h 82 % 0.0 mm
21:06 21.2 °C 12.1 °C 998.9 hPa East 7.9 km/h 7.9 km/h 56 % 0.0 mm
21:11 21.2 °C 12.1 °C 998.9 hPa East 7.9 km/h 7.9 km/h 56 % 0.0 mm
21:16 21.1 °C 12.0 °C 998.9 hPa East 7.9 km/h 7.9 km/h 56 % 0.0 mm
21:21 21.1 °C 12.8 °C 998.9 hPa East 7.9 km/h 7.9 km/h 59 % 0.0 mm
21:25 15.7 °C 12.1 °C 1000.9 hPa ESE 4.8 km/h 9.7 km/h 79 % 0.0 mm
21:26 21.1 °C 13.6 °C 998.9 hPa East 7.9 km/h 7.9 km/h 62 % 0.0 mm
21:31 21.0 °C 13.2 °C 999.9 hPa East 7.9 km/h 7.9 km/h 61 % 0.0 mm
21:35 15.8 °C 11.8 °C 1000.9 hPa ESE 4.8 km/h 9.7 km/h 77 % 0.0 mm
21:36 21.0 °C 12.4 °C 999.9 hPa East 7.9 km/h 7.9 km/h 58 % 0.0 mm
21:41 21.0 °C 12.4 °C 999.9 hPa East 7.9 km/h 7.9 km/h 58 % 0.0 mm
21:45 15.8 °C 10.9 °C 1000.9 hPa ESE 4.8 km/h 9.7 km/h 73 % 0.0 mm
21:51 20.8 °C 13.5 °C 999.9 hPa East 7.9 km/h 7.9 km/h 63 % 0.0 mm
21:55 15.6 °C 10.8 °C 1000.9 hPa ESE 4.8 km/h 9.7 km/h 73 % 0.0 mm
21:56 20.8 °C 13.7 °C 999.9 hPa East 7.9 km/h 7.9 km/h 64 % 0.0 mm
22:01 20.7 °C 14.1 °C 999.9 hPa East 7.9 km/h 7.9 km/h 66 % 0.0 mm
22:05 15.4 °C 10.6 °C 1000.9 hPa ESE 4.8 km/h 9.7 km/h 73 % 0.0 mm
22:06 20.7 °C 14.3 °C 999.9 hPa East 7.9 km/h 7.9 km/h 67 % 0.0 mm
22:11 20.5 °C 12.7 °C 999.9 hPa ENE 4.7 km/h 4.7 km/h 61 % 0.0 mm
22:15 15.2 °C 10.2 °C 999.9 hPa ESE 4.8 km/h 9.7 km/h 72 % 0.0 mm
22:17 20.5 °C 12.4 °C 999.9 hPa ENE 4.7 km/h 4.7 km/h 60 % 0.0 mm
22:22 20.4 °C 12.1 °C 999.9 hPa ENE 4.7 km/h 4.7 km/h 59 % 0.0 mm
22:25 15.5 °C 9.8 °C 999.9 hPa ESE 4.8 km/h 9.7 km/h 69 % 0.0 mm
22:27 20.4 °C 11.8 °C 999.9 hPa ENE 4.7 km/h 4.7 km/h 58 % 0.0 mm
22:32 20.3 °C 11.8 °C 1000.9 hPa ENE 4.7 km/h 4.7 km/h 58 % 0.0 mm
22:35 15.3 °C 9.8 °C 1000.9 hPa ESE 4.8 km/h 9.7 km/h 70 % 0.0 mm
22:37 20.3 °C 11.8 °C 1000.9 hPa ENE 4.7 km/h 4.7 km/h 58 % 0.0 mm
22:42 20.2 °C 11.7 °C 1000.9 hPa ENE 4.7 km/h 4.7 km/h 58 % 0.0 mm
22:45 15.3 °C 9.7 °C 999.9 hPa ESE 4.8 km/h 9.7 km/h 69 % 0.0 mm
22:47 20.2 °C 11.7 °C 1000.9 hPa ENE 4.7 km/h 4.7 km/h 58 % 0.0 mm
22:52 20.1 °C 11.3 °C 1000.9 hPa ENE 4.7 km/h 4.7 km/h 57 % 0.0 mm
22:55 15.4 °C 9.3 °C 999.9 hPa ESE 4.8 km/h 9.7 km/h 67 % 0.0 mm
22:57 20.0 °C 11.2 °C 1000.9 hPa ENE 4.7 km/h 4.7 km/h 57 % 0.0 mm
23:02 19.9 °C 11.7 °C 999.9 hPa ENE 4.7 km/h 4.7 km/h 59 % 0.0 mm
23:05 15.5 °C 9.2 °C 999.9 hPa ESE 4.8 km/h 9.7 km/h 66 % 0.0 mm
23:07 19.7 °C 11.4 °C 999.9 hPa ENE 4.7 km/h 4.7 km/h 59 % 0.0 mm
23:12 19.7 °C 11.4 °C 999.9 hPa ENE 4.7 km/h 4.7 km/h 59 % 0.0 mm
23:15 15.7 °C 9.1 °C 1000.9 hPa ESE 4.8 km/h 9.7 km/h 65 % 0.0 mm
23:17 19.6 °C 11.6 °C 1000.9 hPa ENE 4.7 km/h 4.7 km/h 60 % 0.0 mm
23:22 19.4 °C 11.4 °C 1000.9 hPa ENE 4.7 km/h 4.7 km/h 60 % 0.0 mm
23:25 15.7 °C 9.1 °C 1000.9 hPa ESE 4.8 km/h 9.7 km/h 65 % 0.0 mm
23:27 19.4 °C 11.4 °C 1000.9 hPa ENE 4.7 km/h 4.7 km/h 60 % 0.0 mm
23:32 19.2 °C 11.2 °C 999.9 hPa ENE 4.7 km/h 4.7 km/h 60 % 0.0 mm
23:35 15.8 °C 9.2 °C 999.9 hPa ESE 4.8 km/h 9.7 km/h 65 % 0.0 mm
23:37 19.1 °C 11.4 °C 999.9 hPa ENE 4.7 km/h 4.7 km/h 61 % 0.0 mm
23:42 19.0 °C 11.3 °C 999.9 hPa ENE 4.7 km/h 4.7 km/h 61 % 0.0 mm
23:45 15.6 °C 9.1 °C 1000.9 hPa ESE 4.8 km/h 9.7 km/h 65 % 0.0 mm
23:47 19.0 °C 11.3 °C 999.9 hPa ENE 4.7 km/h 4.7 km/h 61 % 0.0 mm
23:52 18.9 °C 11.4 °C 999.9 hPa ENE 4.7 km/h 4.7 km/h 62 % 0.0 mm
23:55 15.4 °C 9.1 °C 1000.9 hPa ESE 4.8 km/h 9.7 km/h 66 % 0.0 mm
23:57 18.8 °C 11.4 °C 999.9 hPa ENE 4.7 km/h 4.7 km/h 62 % 0.0 mm
Meteo Sesrovires
Elogis d' Weather Underground - 3.75 mb

Guio original per  Jim McMurry - jmcmurry@mwt.net Adaptat per a la plantilla per  Wim van der Kuil - Leuven-Template.eu

Trobareu la nostra informacio del temps tambe a:

Weather Underground

AWEKAS